Downloads

-JavaCPC -demo -emu -j-cpc_ani -tools 0-9 A B C D E F G H I J K L M N O P Q R S T U V W X Y Z ZZZ_UNK roms
FILEDATESIZEDLs
KTris by Richard Wilson (PD).zip 2017-04-21 16:14 2 Kb100
Kaiser (G) (19xx).zip 2017-04-21 16:13 91 Kb118
Kane & Nebulus & Renaud - Marche a l'Ombre.zip 2017-04-21 16:13 95 Kb58
Kane (UK) (1986).zip 2017-04-21 16:13 28 Kb88
Kane (UK) (1986) [a1].zip 2017-04-21 16:13 80 Kb102
Kane (UK) (1986) [a2].zip 2017-04-21 16:13 38 Kb89
Kane (UK) (1986) [t1].zip 2017-04-21 16:13 38 Kb100
Karateka (F) (1986).zip 2017-04-21 16:13 50 Kb97
Karateka (F) (1986) [f1].zip 2017-04-21 16:13 50 Kb96
Karateka (F) (1986) [t1].zip 2017-04-21 16:13 50 Kb93
Karateka (F) (1990).zip 2017-04-21 16:13 49 Kb96
Karateka (F) (1990) [t1].zip 2017-04-21 16:13 49 Kb92
Karateka (F).dsk 2017-04-21 16:13 192 Kb105
Karl's Treasure Hunt (UK) (1984).zip 2017-04-21 16:13 11 Kb95
Karl's Treasure Hunt (UK) (1984) [a1].zip 2017-04-21 16:13 84 Kb93
Karl's Treasure Hunt (UK) (1984) [a2].zip 2017-04-21 16:13 11 Kb90
Karnov (E) - Disk 1A.dsk 2017-04-21 16:13 214 Kb93
Karnov (E) - Disk 1B.dsk 2017-04-21 16:13 214 Kb93
Karnov (UK) (1988) (Disk 1 of 2).zip 2017-04-21 16:13 73 Kb90
Karnov (UK) (1988) (Disk 1 of 2) [a1].zip 2017-04-21 16:13 56 Kb79
Karnov (UK) (1988) (Disk 1 of 2) [t1].zip 2017-04-21 16:13 159 Kb98
Karnov (UK) (1988) (Disk 1 of 2) [t2].zip 2017-04-21 16:13 73 Kb82
Karnov (UK) (1988) (Disk 2 of 2).zip 2017-04-21 16:13 62 Kb90
Karnov (UK) (1988) (Disk 2 of 2) [a1].zip 2017-04-21 16:13 105 Kb92
Karnov (UK) (1988) (Disk 2 of 2) [t2].zip 2017-04-21 16:13 62 Kb96
Kat Trap (E).dsk 2017-04-21 16:13 91 Kb94
Kat Trap (UK) (1987).zip 2017-04-21 16:13 34 Kb96
Keep Yourself Alive (F) (1987).zip 2017-04-21 16:13 19 Kb96
Kenny Dalglish Soccer Manager (E).cdt 2017-04-21 16:13 57 Kb108
Kenny Dalglish Soccer Manager (UK) (1989).zip 2017-04-21 16:13 25 Kb90
Kenny Dalglish Soccer Match (UK) (1990).zip 2017-04-21 16:13 29 Kb90
Kentilla (UK) (1985).zip 2017-04-21 16:13 23 Kb95
Kentilla (UK) (1985) [a1].zip 2017-04-21 16:13 30 Kb95
Kentucky Racing (E).cdt 2017-04-21 16:13 45 Kb103
Kentucky Racing (UK) (1990).zip 2017-04-21 16:13 24 Kb88
Kentucky Racing (UK) (1990) [f1].zip 2017-04-21 16:13 24 Kb94
Kessia (F) (19xx).zip 2017-04-21 16:13 72 Kb89
Kettle (E).dsk 2017-04-21 16:13 193 Kb92
Kettle (UK) (1986).zip 2017-04-21 16:13 21 Kb97
Kevin Thacker's CPC Guide (UK) (19xx) (PD) (Disk 1 of 2).zip 2017-04-21 16:13 47 Kb83
Kevin Thacker's CPC Guide (UK) (19xx) (PD) (Disk 2 of 2).zip 2017-04-21 16:13 41 Kb87
Key Factor, The (UK) (1985).zip 2017-04-21 16:13 13 Kb95
Kick Off (UK,F,G,S,I) (1990).zip 2017-04-21 16:13 27 Kb91
Kick Off (UK,F,G,S,I) (1990) [a1].zip 2017-04-21 16:13 131 Kb89
Kick Off (UK,F,G,S,I) (1990) [a2].zip 2017-04-21 16:13 31 Kb82
Kick Off 2 (E) - Disk 1A.dsk 2017-04-21 16:13 178 Kb107
Kick Off 2 (E) - Disk 1B.dsk 2017-04-21 16:13 178 Kb97
Kick Off 2 (F) (1990).zip 2017-04-21 16:13 68 Kb89
Kick Off 2 (F) (1990) [a1].zip 2017-04-21 16:13 68 Kb95
Kikstart II (UK) (1988).zip 2017-04-21 16:13 24 Kb95
Kikstart II (UK) (1988) [a1].zip 2017-04-21 16:13 23 Kb101
Killapede (UK) (1986).zip 2017-04-21 16:13 26 Kb91
Killapede (UK) (1986) [a1].zip 2017-04-21 16:13 26 Kb92
Killapede (UK) (1986) [a2].zip 2017-04-21 16:13 32 Kb97
Killapede (UK) (1986) [a3].zip 2017-04-21 16:13 30 Kb98
Killed Until Dead (UK) (1987) (Disk 1 of 2).zip 2017-04-21 16:13 50 Kb86
Killed Until Dead (UK) (1987) (Disk 2 of 2).zip 2017-04-21 16:13 62 Kb86
Killer Ball (UK) (1991).zip 2017-04-21 16:14 103 Kb90
Killer Ball (UK) (1991) [a1].zip 2017-04-21 16:13 103 Kb91
Killer Ball (UK) (1991) [a2].zip 2017-04-21 16:13 76 Kb92
Killer Ball (UK) (1991) [a3].zip 2017-04-21 16:13 96 Kb85
Killer Cobra (E).cdt 2017-04-21 16:14 49 Kb93
Killer Cobra (UK) (1987).zip 2017-04-21 16:14 27 Kb90
Killer Cobra (UK) (1987) [a1].zip 2017-04-21 16:14 27 Kb95
Killer Cobra (UK) (1987) [a2].zip 2017-04-21 16:14 31 Kb90
Killer Gorilla & Knight Lore & Laserwarp & Molecule Man & Zaxx (F).zip 2017-04-21 16:14 82 Kb59
Killer Gorilla (UK) (1984).zip 2017-04-21 16:14 19 Kb95
Killer Gorilla (UK) (1984) [a1].zip 2017-04-21 16:14 19 Kb98
Killer Gorilla (UK) (1984) [a2].zip 2017-04-21 16:14 15 Kb98
Killer Gorilla (UK) (1984) [a3].zip 2017-04-21 16:14 18 Kb90
Killer Gorilla (UK) (1984) [b1].zip 2017-04-21 16:14 19 Kb94
Killer Gorilla (UK) (1984) [b2].zip 2017-04-21 16:14 19 Kb96
Killer Ring (UK) (1987).zip 2017-04-21 16:14 16 Kb99
Killer Ring (UK) (1987) [a1].zip 2017-04-21 16:14 16 Kb96
Kiloroid (UK) (19xx).zip 2017-04-21 16:14 2 Kb91
Kim (F) (1986).zip 2017-04-21 16:14 9 Kb90
Kinetic (UK) (1987).zip 2017-04-21 16:14 35 Kb92
Kinetic (UK) (1987) [a1].zip 2017-04-21 16:14 36 Kb90
Kinetic (UK) (1987) [a2].zip 2017-04-21 16:14 35 Kb99
Kinetik (E).dsk 2017-04-21 16:14 195 Kb107
Kingdom of Hamil (UK) (1987).zip 2017-04-21 16:14 57 Kb91
Kingdoms (UK) (1985).zip 2017-04-21 16:14 5 Kb91
Kit de Telechargement - Telecharge Amstrad CPC (F).dsk 2017-04-21 16:14 217 Kb102
Kit de Telechargement pour Amstrad CPC (F).dsk 2017-04-21 16:14 191 Kb111
Klax & Meynaumede (F) & Nervous Break Down (F) & Skweek.zip 2017-04-21 16:14 97 Kb61
Klax (E).dsk 2017-04-21 16:14 172 Kb96
Klax (UK) (1990) (CPM).zip 2017-04-21 16:14 44 Kb88
Klax (UK) (1990) (CPM) [a1].zip 2017-04-21 16:14 44 Kb98
Klax (UK) (1990) (CPM Version).zip 2017-04-21 16:14 43 Kb90
Klax (UK) (1990) (CPM Version) [a1].zip 2017-04-21 16:14 43 Kb91
Klax (UK) (1990) (Cart).zip 2017-04-21 16:14 41 Kb94
Klax (UK) (1990).zip 2017-04-21 16:14 42 Kb88
Klax (UK) (1990) [a1].zip 2017-04-21 16:14 42 Kb97
Klax (UK) (1990) [h1].zip 2017-04-21 16:14 52 Kb91
Klax (UK) (1990) [h2].zip 2017-04-21 16:14 54 Kb96
Knaves and thou Prisoners (UK) (19xx).zip 2017-04-21 16:14 8 Kb86
Knight Force (F) (1989) (Disk 1 of 2).zip 2017-04-21 16:14 54 Kb92
Knight Force (F) (1989) (Disk 1 of 2) [t1].zip 2017-04-21 16:14 55 Kb85
Knight Force (F) (1989) (Disk 1 of 2) [t2] & Power Drift.zip 2017-04-21 16:14 108 Kb54
Knight Force (F) (1989) (Disk 1 of 2) [t2].zip 2017-04-21 16:14 75 Kb85
Knight Force (F) (1989) (Disk 2 of 2).zip 2017-04-21 16:14 76 Kb90
Knight Force (F) - Disk 1A.dsk 2017-04-21 16:14 456 Kb94
Knight Force (F) - Disk 1B.dsk 2017-04-21 16:14 627 Kb98
Knight Games (E) - Side A.cdt 2017-04-21 16:14 166 Kb103
Knight Games (E) - Side B.cdt 2017-04-21 16:14 142 Kb90
Knight Games (UK) (1986) (Disk 1 of 2).zip 2017-04-21 16:14 88 Kb93
Knight Games (UK) (1986) (Disk 1 of 2) [a1].zip 2017-04-21 16:14 83 Kb84
Knight Games (UK) (1986) (Disk 1 of 2) [a2].zip 2017-04-21 16:14 83 Kb86
Knight Games (UK) (1986) (Disk 1 of 2) [a3].zip 2017-04-21 16:14 103 Kb80
Knight Games (UK) (1986) (Disk 2 of 2).zip 2017-04-21 16:14 94 Kb93
Knight Games (UK) (1986) (Disk 2 of 2) [a1].zip 2017-04-21 16:14 76 Kb86
Knight Games (UK) (1986) (Disk 2 of 2) [a2].zip 2017-04-21 16:14 79 Kb82
Knight Games (UK) (1986) (Disk 2 of 2) [a3].zip 2017-04-21 16:14 109 Kb85
Knight Games (UK) (1986) [f1][t1].zip 2017-04-21 16:14 179 Kb88
Knight Lore (E).cdt 2017-04-21 16:14 42 Kb94
Knight Lore (UK) (1984).zip 2017-04-21 16:14 25 Kb96
Knight Lore (UK) (1984) [a1].zip 2017-04-21 16:14 25 Kb97
Knight Lore (UK) (1984) [a2].zip 2017-04-21 16:14 25 Kb98
Knight Moves (F) (19xx) (Disk 1 of 2).zip 2017-04-21 16:14 60 Kb94
Knight Moves (F) (19xx) (Disk 2 of 2).zip 2017-04-21 16:14 83 Kb90
Knight Orc (E) - Disk 1A.dsk 2017-04-21 16:14 194 Kb98
Knight Orc (E) - Disk 1B.dsk 2017-04-21 16:14 199 Kb100
Knight Orc (UK) (1987) (Disk 1 of 2).zip 2017-04-21 16:14 119 Kb95
Knight Orc (UK) (1987) (Disk 2 of 2).zip 2017-04-21 16:14 110 Kb92
Knight Rider (E).cdt 2017-04-21 16:14 45 Kb100
Knight Rider (UK) (1986).zip 2017-04-21 16:14 20 Kb87
Knight Rider (UK) (1986) [h1].zip 2017-04-21 16:14 32 Kb94
Knight Rider (UK) (1986) [h2].zip 2017-04-21 16:14 21 Kb91
Knight Tyme (E).cdt 2017-04-21 16:14 57 Kb99
Knight Tyme (UK) (1986).zip 2017-04-21 16:14 31 Kb96
Knight Tyme (UK) (1986) [a1].zip 2017-04-21 16:14 31 Kb94
Knight Tyme (UK) (1986) [t1].zip 2017-04-21 16:14 31 Kb85
Knightmare (E).dsk 2017-04-21 16:14 213 Kb103
Knightmare (UK) (1987).zip 2017-04-21 16:14 29 Kb92
Knightmare (UK) (1987) [a1].zip 2017-04-21 16:14 30 Kb89
Knightmare (UK) (1987) [a2].zip 2017-04-21 16:14 30 Kb96
Knightmare (UK) (1987) [t1].zip 2017-04-21 16:14 33 Kb93
Know (G).dsk 2017-04-21 16:14 192 Kb111
Kobayashi Naru (UK) (19xx).zip 2017-04-21 16:14 31 Kb98
Kobayashi Naru (UK) (1987).zip 2017-04-21 16:14 31 Kb94
Kobayashi Naru (UK) (1987) [a1].zip 2017-04-21 16:14 31 Kb94
Kobayashi Naru (UK) (1987) [a2].zip 2017-04-21 16:14 48 Kb101
Kokotoni Wilf (UK) (19xx).zip 2017-04-21 16:14 137 Kb99
Kokotoni Wilf (UK) (19xx) [a1].zip 2017-04-21 16:14 35 Kb96
Kokotoni Wilf (UK) (19xx) [f1][t1].zip 2017-04-21 16:14 37 Kb88
Konami's Golf (UK) (1986).zip 2017-04-21 16:14 24 Kb89
Konami's Golf (UK) (1986) [a1].zip 2017-04-21 16:14 24 Kb92
Konami's Golf (UK) (1986) [a2].zip 2017-04-21 16:14 26 Kb93
Konami Coin-op Hits (UK) (19xx) (Disk 1 of 2).zip 2017-04-21 16:14 50 Kb88
Konami Coin-op Hits (UK) (19xx) (Disk 1 of 2) [a1].zip 2017-04-21 16:14 50 Kb84
Konami Coin-op Hits (UK) (19xx) (Disk 2 of 2).zip 2017-04-21 16:14 65 Kb87
Konami Coin-op Hits (UK) (19xx) (Disk 2 of 2) [a1].zip 2017-04-21 16:14 65 Kb91
Konami Coin-op Hits (UK) (19xx) (Disk 2 of 2) [a2].zip 2017-04-21 16:14 65 Kb88
Kong Strikes Back (UK) (1985).zip 2017-04-21 16:14 21 Kb100
Kong Strikes Back (UK) (1985) [a1].zip 2017-04-21 16:14 21 Kb101
Kong Strikes Back (UK) (1985) [a2].zip 2017-04-21 16:14 23 Kb92
Koronis Rift (E).dsk 2017-04-21 16:14 186 Kb102
Koronis Rift (UK) (1987).zip 2017-04-21 16:14 57 Kb95
Krakout (E).cdt 2017-04-21 16:14 64 Kb105
Krakout (E).dsk 2017-04-21 16:14 171 Kb101
Krakout (UK) (1987).zip 2017-04-21 16:14 31 Kb96
Krakout (UK) (1987) [h1].zip 2017-04-21 16:14 34 Kb92
Kristal (F).dsk 2017-04-21 16:14 191 Kb100
Kristal (UK) (1985).zip 2017-04-21 16:14 16 Kb96
Kristax (UK) (1989).zip 2017-04-21 16:14 9 Kb98
Krypton Factor (UK) (1987) (Disk 1 of 2).zip 2017-04-21 16:14 52 Kb89
Krypton Factor (UK) (1987) (Disk 1 of 2) [a1].zip 2017-04-21 16:14 47 Kb96
Krypton Factor (UK) (1987) (Disk 2 of 2).zip 2017-04-21 16:14 5 Kb91
Krypton Factor (UK) (1987) (Disk 2 of 2) [a1].zip 2017-04-21 16:14 21 Kb89
Kung-Fu (UK) (1986).zip 2017-04-21 16:14 19 Kb92
Kung-Fu Master (E).dsk 2017-04-21 16:14 191 Kb94
Kung-Fu Master (UK) (1986).zip 2017-04-21 16:14 28 Kb100
Kung-Fu Master (UK) (1986) [h1].zip 2017-04-21 16:14 22 Kb93
Kwah (UK) (1987).zip 2017-04-21 16:14 36 Kb84
Kwik Snax (E).cdt 2017-04-21 16:14 65 Kb108
Kwik Snax (UK) (1990).zip 2017-04-21 16:14 22 Kb88
Kwik Snax (UK) (1990) [f1].zip 2017-04-21 16:14 33 Kb102
Kwik Snax (UK) (1990) [h1].zip 2017-04-21 16:14 41 Kb95
Kwik Snax (UK) (1990) [t1].zip 2017-04-21 16:14 33 Kb92
kobayashi Naru (E).cdt 2017-04-21 16:14 74 Kb98
180 Files
-JavaCPC -demo -emu -j-cpc_ani -tools 0-9 A B C D E F G H I J K L M N O P Q R S T U V W X Y Z ZZZ_UNK roms